createdAt,value
2017-06-17T00:01:31.730Z,102717.52
2017-06-17T00:03:57.979Z,102711.63
2017-06-17T00:06:24.334Z,102711.61
2017-06-17T00:08:50.595Z,102712.30
2017-06-17T00:11:16.932Z,102714.97
2017-06-17T00:13:43.207Z,102720.64
2017-06-17T00:17:37.321Z,102719.86
2017-06-17T00:20:04.348Z,102717.70
2017-06-17T00:22:30.646Z,102719.83
2017-06-17T00:24:56.920Z,102718.39
2017-06-17T00:27:23.191Z,102724.20
2017-06-17T00:29:49.440Z,102723.92
2017-06-17T00:32:15.728Z,102727.86
2017-06-17T00:34:42.005Z,102719.79
2017-06-17T00:37:08.274Z,102726.05
2017-06-17T00:39:34.618Z,102726.71
2017-06-17T00:42:00.890Z,102728.30
2017-06-17T00:44:27.174Z,102722.48
2017-06-17T00:46:53.454Z,102724.45
2017-06-17T00:49:19.716Z,102719.48
2017-06-17T00:51:46.029Z,102729.70
2017-06-17T00:54:12.410Z,102729.14
2017-06-17T00:56:38.727Z,102725.45
2017-06-17T00:59:05.019Z,102730.67
2017-06-17T01:01:32.082Z,102727.98
2017-06-17T01:03:59.078Z,102731.83
2017-06-17T01:06:25.355Z,102724.09
2017-06-17T01:08:52.371Z,102726.33
2017-06-17T01:11:18.626Z,102725.64
2017-06-17T01:13:45.635Z,102721.12
2017-06-17T01:17:38.466Z,102728.18
2017-06-17T01:20:04.856Z,102724.05
2017-06-17T01:22:31.159Z,102724.36
2017-06-17T01:24:57.423Z,102721.19
2017-06-17T01:27:23.668Z,102714.95
2017-06-17T01:29:49.942Z,102723.09
2017-06-17T01:32:16.251Z,102720.09
2017-06-17T01:34:42.542Z,102721.02
2017-06-17T01:37:08.938Z,102720.05
2017-06-17T01:39:35.215Z,102719.84
2017-06-17T01:42:01.527Z,102719.55
2017-06-17T01:44:27.797Z,102723.25
2017-06-17T01:46:54.124Z,102713.77
2017-06-17T01:49:20.501Z,102714.78
2017-06-17T01:51:46.776Z,102715.34
2017-06-17T01:54:13.166Z,102706.02
2017-06-17T01:56:39.447Z,102709.84
2017-06-17T01:59:05.727Z,102696.88
2017-06-17T02:01:31.978Z,102708.02
2017-06-17T02:03:58.249Z,102706.50
2017-06-17T02:06:24.603Z,102703.77
2017-06-17T02:08:50.870Z,102702.44
2017-06-17T02:11:17.184Z,102703.81
2017-06-17T02:13:43.449Z,102702.25
2017-06-17T02:17:38.327Z,102697.55
2017-06-17T02:20:04.595Z,102697.02
2017-06-17T02:22:30.820Z,102699.34
2017-06-17T02:24:57.064Z,102694.33
2017-06-17T02:27:23.425Z,102692.70
2017-06-17T02:29:49.678Z,102697.81
2017-06-17T02:32:15.922Z,102691.30
2017-06-17T02:34:42.206Z,102695.61
2017-06-17T02:37:08.476Z,102695.41
2017-06-17T02:39:34.714Z,102694.63
2017-06-17T02:42:01.082Z,102697.99
2017-06-17T02:44:27.333Z,102695.38
2017-06-17T02:46:53.578Z,102693.97
2017-06-17T02:49:19.830Z,102695.00
2017-06-17T02:51:46.087Z,102695.63
2017-06-17T02:54:12.351Z,102697.03
2017-06-17T02:56:39.382Z,102693.48
2017-06-17T02:59:05.650Z,102691.34
2017-06-17T03:01:31.987Z,102687.70
2017-06-17T03:03:58.238Z,102691.25
2017-06-17T03:06:24.476Z,102696.20
2017-06-17T03:08:50.719Z,102686.86
2017-06-17T03:11:17.003Z,102690.92
2017-06-17T03:13:43.251Z,102687.16
2017-06-17T03:17:38.190Z,102689.81
2017-06-17T03:20:04.526Z,102685.50
2017-06-17T03:22:30.846Z,102692.75
2017-06-17T03:24:57.175Z,102689.05
2017-06-17T03:27:23.428Z,102700.19
2017-06-17T03:29:49.660Z,102703.50
2017-06-17T03:32:15.993Z,102698.29
2017-06-17T03:34:42.362Z,102695.10
2017-06-17T03:37:08.604Z,102690.28
2017-06-17T03:39:34.950Z,102688.88
2017-06-17T03:42:01.303Z,102691.22
2017-06-17T03:44:27.535Z,102684.95
2017-06-17T03:46:53.766Z,102681.86
2017-06-17T03:49:20.108Z,102681.02
2017-06-17T03:51:46.399Z,102678.01
2017-06-17T03:54:12.643Z,102681.37
2017-06-17T03:56:38.883Z,102675.86
2017-06-17T03:59:05.141Z,102669.72
2017-06-17T04:01:31.439Z,102674.80
2017-06-17T04:03:57.711Z,102674.53
2017-06-17T04:06:23.959Z,102672.50
2017-06-17T04:08:50.262Z,102675.09
2017-06-17T04:11:16.520Z,102670.34
2017-06-17T04:13:42.787Z,102672.53
2017-06-17T04:17:37.858Z,102669.77
2017-06-17T04:20:04.120Z,102677.85
2017-06-17T04:22:30.723Z,102675.98
2017-06-17T04:24:57.033Z,102682.70
2017-06-17T04:27:23.270Z,102686.51
2017-06-17T04:29:49.539Z,102683.98
2017-06-17T04:32:15.791Z,102680.69
2017-06-17T04:34:42.036Z,102683.68
2017-06-17T04:37:08.379Z,102685.58
2017-06-17T04:39:34.619Z,102685.48
2017-06-17T04:42:00.896Z,102686.05
2017-06-17T04:44:27.224Z,102690.22
2017-06-17T04:46:53.571Z,102687.58
2017-06-17T04:49:19.833Z,102690.49
2017-06-17T04:51:46.080Z,102688.23
2017-06-17T04:54:12.334Z,102685.89
2017-06-17T04:56:38.585Z,102690.97
2017-06-17T04:59:04.854Z,102682.45
2017-06-17T05:01:31.226Z,102695.30
2017-06-17T05:03:58.686Z,102693.36
2017-06-17T05:06:24.959Z,102683.50
2017-06-17T05:08:51.554Z,102690.88
2017-06-17T05:11:17.803Z,102697.16
2017-06-17T05:13:44.085Z,102689.28
2017-06-17T05:29:00.519Z,102690.98
2017-06-17T05:31:27.201Z,102690.50
2017-06-17T05:33:53.572Z,102695.04
2017-06-17T05:36:20.568Z,102690.84
2017-06-17T05:38:47.079Z,102684.31
2017-06-17T05:41:13.517Z,102686.59
2017-06-17T05:43:39.827Z,102687.55
2017-06-17T05:46:06.426Z,102691.98
2017-06-17T05:48:32.829Z,102691.41
2017-06-17T05:50:59.228Z,102693.93
2017-06-17T05:53:25.498Z,102693.49
2017-06-17T05:55:51.770Z,102690.87
2017-06-17T05:58:18.135Z,102688.38
2017-06-17T06:00:45.067Z,102692.17
2017-06-17T06:03:12.748Z,102693.61
2017-06-17T06:05:39.893Z,102691.77
2017-06-17T06:08:06.309Z,102695.13
2017-06-17T06:10:32.643Z,102698.33
2017-06-17T06:12:58.922Z,102699.36
2017-06-17T06:17:37.349Z,102699.55
2017-06-17T06:20:03.632Z,102707.91
2017-06-17T06:22:30.278Z,102705.44
2017-06-17T06:24:56.543Z,102707.15
2017-06-17T06:27:22.835Z,102710.84
2017-06-17T06:29:49.099Z,102711.83
2017-06-17T06:32:15.351Z,102705.84
2017-06-17T06:34:42.005Z,102711.88
2017-06-17T06:37:08.258Z,102714.15
2017-06-17T06:39:34.503Z,102714.13
2017-06-17T06:42:00.734Z,102718.64
2017-06-17T06:44:27.016Z,102720.75
2017-06-17T06:46:53.384Z,102727.64
2017-06-17T06:49:19.627Z,102717.73
2017-06-17T06:51:45.950Z,102719.52
2017-06-17T06:54:12.205Z,102721.57
2017-06-17T06:56:38.497Z,102719.98
2017-06-17T06:59:04.763Z,102724.25
2017-06-17T07:01:31.006Z,102726.59
2017-06-17T07:03:57.415Z,102721.69
2017-06-17T07:06:23.713Z,102719.62
2017-06-17T07:08:49.975Z,102720.61
2017-06-17T07:11:16.326Z,102721.26
2017-06-17T07:13:42.615Z,102720.15
2017-06-17T07:17:37.044Z,102719.80
2017-06-17T07:20:03.315Z,102726.34
2017-06-17T07:22:29.552Z,102729.73
2017-06-17T07:24:56.013Z,102731.46
2017-06-17T07:27:22.248Z,102727.89
2017-06-17T07:29:48.527Z,102726.86
2017-06-17T07:32:14.806Z,102730.19
2017-06-17T07:34:41.046Z,102726.88
2017-06-17T07:37:07.395Z,102730.91
2017-06-17T07:39:33.645Z,102729.25
2017-06-17T07:41:59.904Z,102738.52
2017-06-17T07:44:26.166Z,102738.94
2017-06-17T07:46:52.433Z,102737.28
2017-06-17T07:49:18.818Z,102736.80
2017-06-17T07:51:45.284Z,102738.08
2017-06-17T07:54:11.587Z,102751.86
2017-06-17T07:56:37.830Z,102756.73
2017-06-17T07:59:04.120Z,102759.36
2017-06-17T08:01:30.379Z,102761.41
2017-06-17T08:03:56.723Z,102763.11
2017-06-17T08:06:23.012Z,102765.34
2017-06-17T08:08:49.458Z,102766.00
2017-06-17T08:11:15.775Z,102770.58
2017-06-17T08:13:42.074Z,102767.64
2017-06-17T08:17:38.319Z,102764.09
2017-06-17T08:20:05.064Z,102758.13
2017-06-17T08:22:31.400Z,102768.39
2017-06-17T08:24:57.640Z,102768.56
2017-06-17T08:27:23.927Z,102771.90
2017-06-17T08:29:50.167Z,102779.80
2017-06-17T08:32:16.570Z,102777.20
2017-06-17T08:34:42.805Z,102776.95
2017-06-17T08:37:09.033Z,102783.50
2017-06-17T08:39:35.292Z,102787.54
2017-06-17T08:42:01.532Z,102794.18
2017-06-17T08:44:27.924Z,102796.94
2017-06-17T08:46:54.249Z,102797.97
2017-06-17T08:49:20.620Z,102791.75
2017-06-17T08:51:47.149Z,102800.98
2017-06-17T08:54:13.443Z,102796.92
2017-06-17T08:56:39.695Z,102795.69
2017-06-17T08:59:05.968Z,102794.81
2017-06-17T09:01:32.219Z,102793.24
2017-06-17T09:03:58.472Z,102795.19
2017-06-17T09:06:24.712Z,102795.91
2017-06-17T09:08:50.997Z,102802.58
2017-06-17T09:11:17.399Z,102803.03
2017-06-17T09:13:43.634Z,102806.13
2017-06-17T09:17:37.436Z,102808.77
2017-06-17T09:20:03.680Z,102820.23
2017-06-17T09:22:29.923Z,102814.86
2017-06-17T09:24:56.399Z,102805.69
2017-06-17T09:27:22.660Z,102815.03
2017-06-17T09:29:49.012Z,102823.39
2017-06-17T09:32:15.310Z,102826.08
2017-06-17T09:34:41.626Z,102824.73
2017-06-17T09:37:07.888Z,102826.20
2017-06-17T09:39:34.157Z,102829.73
2017-06-17T09:42:02.302Z,102831.25
2017-06-17T09:44:28.713Z,102829.20
2017-06-17T09:46:54.956Z,102823.05
2017-06-17T09:49:21.207Z,102821.38
2017-06-17T09:51:47.538Z,102828.57
2017-06-17T09:54:14.877Z,102835.97
2017-06-17T09:56:41.116Z,102822.75
2017-06-17T09:59:07.351Z,102823.08
2017-06-17T10:01:33.724Z,102822.08
2017-06-17T10:04:00.036Z,102816.77
2017-06-17T10:06:26.256Z,102825.41
2017-06-17T10:08:52.496Z,102826.01
2017-06-17T10:11:18.742Z,102818.70
2017-06-17T10:13:45.084Z,102817.11
2017-06-17T10:17:37.073Z,102816.19
2017-06-17T10:20:03.328Z,102816.84
2017-06-17T10:22:29.644Z,102809.42
2017-06-17T10:24:55.914Z,102813.23
2017-06-17T10:27:22.171Z,102826.25
2017-06-17T10:29:48.499Z,102828.27
2017-06-17T10:32:14.756Z,102820.05
2017-06-17T10:34:41.052Z,102809.78
2017-06-17T10:37:07.345Z,102809.31
2017-06-17T10:39:33.719Z,102809.73
2017-06-17T10:41:59.956Z,102804.80
2017-06-17T10:44:26.208Z,102799.53
2017-06-17T10:46:52.568Z,102811.02
2017-06-17T10:49:18.892Z,102823.94
2017-06-17T10:51:45.213Z,102817.08
2017-06-17T10:54:11.557Z,102825.00
2017-06-17T10:56:37.828Z,102821.64
2017-06-17T10:59:04.096Z,102815.84
2017-06-17T11:01:30.415Z,102819.36
2017-06-17T11:03:56.671Z,102818.34
2017-06-17T11:06:23.318Z,102808.96
2017-06-17T11:08:49.555Z,102812.31
2017-06-17T11:11:15.820Z,102812.20
2017-06-17T11:13:42.134Z,102812.80
2017-06-17T11:17:36.839Z,102812.80
2017-06-17T11:20:03.121Z,102815.55
2017-06-17T11:22:29.450Z,102814.45
2017-06-17T11:24:55.773Z,102819.22
2017-06-17T11:27:22.025Z,102817.33
2017-06-17T11:29:48.262Z,102817.54
2017-06-17T11:32:14.515Z,102816.52
2017-06-17T11:34:40.887Z,102815.89
2017-06-17T11:37:07.140Z,102814.98
2017-06-17T11:39:33.467Z,102813.81
2017-06-17T11:41:59.797Z,102820.17
2017-06-17T11:44:26.110Z,102815.16
2017-06-17T11:46:52.472Z,102816.87
2017-06-17T11:49:18.723Z,102814.73
2017-06-17T11:51:45.006Z,102814.53
2017-06-17T11:54:11.270Z,102813.88
2017-06-17T11:56:37.539Z,102803.32
2017-06-17T11:59:03.799Z,102811.89
2017-06-17T12:01:30.067Z,102810.13
2017-06-17T12:03:56.547Z,102820.34
2017-06-17T12:06:22.829Z,102818.14
2017-06-17T12:08:49.089Z,102821.80
2017-06-17T12:11:15.337Z,102819.97
2017-06-17T12:13:41.612Z,102805.09
2017-06-17T12:17:37.848Z,102792.69
2017-06-17T12:20:04.128Z,102786.45
2017-06-17T12:22:30.491Z,102781.47
2017-06-17T12:24:56.764Z,102785.69
2017-06-17T12:27:23.018Z,102775.92
2017-06-17T12:29:49.267Z,102789.52
2017-06-17T12:32:15.525Z,102790.94
2017-06-17T12:34:41.820Z,102791.83
2017-06-17T12:37:08.067Z,102792.39
2017-06-17T12:39:34.405Z,102790.48
2017-06-17T12:42:00.690Z,102789.52
2017-06-17T12:44:26.963Z,102796.12
2017-06-17T12:46:53.286Z,102798.35
2017-06-17T12:49:19.563Z,102784.81
2017-06-17T12:51:45.856Z,102792.66
2017-06-17T12:54:12.124Z,102792.66
2017-06-17T12:56:38.456Z,102793.45
2017-06-17T12:59:04.841Z,102795.33
2017-06-17T13:01:31.156Z,102793.80
2017-06-17T13:03:57.476Z,102792.16
2017-06-17T13:06:23.726Z,102796.20
2017-06-17T13:08:49.978Z,102792.39
2017-06-17T13:11:16.307Z,102784.39
2017-06-17T13:13:42.523Z,102780.75
2017-06-17T13:17:38.440Z,102775.04
2017-06-17T13:20:04.738Z,102779.72
2017-06-17T13:22:31.079Z,102776.22
2017-06-17T13:24:57.408Z,102779.53
2017-06-17T13:27:23.645Z,102776.29
2017-06-17T13:29:49.930Z,102768.14
2017-06-17T13:32:16.212Z,102773.09
2017-06-17T13:34:42.457Z,102760.41
2017-06-17T13:37:08.769Z,102764.64
2017-06-17T13:39:34.996Z,102760.59
2017-06-17T13:42:01.230Z,102765.69
2017-06-17T13:44:27.471Z,102765.80
2017-06-17T13:46:53.708Z,102761.38
2017-06-17T13:49:20.075Z,102763.02
2017-06-17T13:51:46.394Z,102760.05
2017-06-17T13:54:12.625Z,102761.63
2017-06-17T13:56:38.846Z,102763.03
2017-06-17T13:59:05.075Z,102756.02
2017-06-17T14:01:31.335Z,102755.89
2017-06-17T14:03:57.644Z,102754.55
2017-06-17T14:06:23.894Z,102753.57
2017-06-17T14:08:50.139Z,102751.04
2017-06-17T14:11:16.361Z,102745.30
2017-06-17T14:13:42.730Z,102749.45
2017-06-17T14:17:37.417Z,102750.18
2017-06-17T14:20:03.673Z,102746.09
2017-06-17T14:22:29.960Z,102749.87
2017-06-17T14:24:56.267Z,102746.34
2017-06-17T14:27:22.505Z,102749.30
2017-06-17T14:29:48.906Z,102739.98
2017-06-17T14:32:15.139Z,102736.31
2017-06-17T14:34:41.460Z,102737.91
2017-06-17T14:37:07.720Z,102734.24
2017-06-17T14:39:33.999Z,102732.73
2017-06-17T14:42:00.307Z,102734.95
2017-06-17T14:44:26.536Z,102732.34
2017-06-17T14:46:52.875Z,102728.78
2017-06-17T14:49:19.143Z,102731.47
2017-06-17T14:51:45.398Z,102731.13
2017-06-17T14:54:11.636Z,102729.81
2017-06-17T14:56:37.992Z,102732.83
2017-06-17T14:59:04.644Z,102733.44
2017-06-17T15:01:30.977Z,102727.20
2017-06-17T15:03:57.240Z,102729.51
2017-06-17T15:06:23.500Z,102731.45
2017-06-17T15:08:49.752Z,102727.93
2017-06-17T15:11:16.110Z,102721.89
2017-06-17T15:13:42.358Z,102731.89
2017-06-17T15:17:37.003Z,102729.89
2017-06-17T15:20:03.263Z,102730.28
2017-06-17T15:22:29.661Z,102726.53
2017-06-17T15:24:55.904Z,102723.69
2017-06-17T15:27:22.159Z,102727.23
2017-06-17T15:29:48.403Z,102724.73
2017-06-17T15:32:14.636Z,102724.44
2017-06-17T15:34:40.946Z,102723.61
2017-06-17T15:37:07.232Z,102724.84
2017-06-17T15:39:34.295Z,102724.67
2017-06-17T15:42:00.854Z,102724.84
2017-06-17T15:44:27.155Z,102720.75
2017-06-17T15:46:53.609Z,102722.08
2017-06-17T15:49:20.042Z,102725.48
2017-06-17T15:51:46.528Z,102723.20
2017-06-17T15:54:12.843Z,102729.97
2017-06-17T15:56:39.973Z,102729.42
2017-06-17T15:59:06.585Z,102727.27
2017-06-17T16:01:33.064Z,102728.48
2017-06-17T16:03:59.463Z,102727.68
2017-06-17T16:06:25.717Z,102729.36
2017-06-17T16:08:52.338Z,102730.03
2017-06-17T16:11:18.622Z,102722.18
2017-06-17T16:13:45.145Z,102728.05
2017-06-17T16:17:36.867Z,102714.37
2017-06-17T16:20:03.410Z,102724.16
2017-06-17T16:22:29.772Z,102715.83
2017-06-17T16:24:56.010Z,102718.95
2017-06-17T16:27:22.458Z,102721.56
2017-06-17T16:29:48.804Z,102722.92
2017-06-17T16:32:15.159Z,102730.38
2017-06-17T16:34:41.585Z,102726.98
2017-06-17T16:37:07.879Z,102725.40
2017-06-17T16:39:34.128Z,102726.33
2017-06-17T16:42:00.381Z,102723.59
2017-06-17T16:44:26.620Z,102715.52
2017-06-17T16:46:52.955Z,102722.33
2017-06-17T16:49:19.192Z,102723.05
2017-06-17T16:51:45.481Z,102723.05
2017-06-17T16:54:11.744Z,102721.20
2017-06-17T16:56:37.967Z,102714.91
2017-06-17T16:59:04.331Z,102719.44
2017-06-17T17:01:30.576Z,102713.89
2017-06-17T17:03:56.836Z,102725.30
2017-06-17T17:06:23.086Z,102725.61
2017-06-17T17:08:49.337Z,102722.97
2017-06-17T17:11:15.748Z,102722.16
2017-06-17T17:13:42.015Z,102730.34
2017-06-17T17:17:37.424Z,102728.16
2017-06-17T17:20:03.671Z,102729.83
2017-06-17T17:22:30.003Z,102732.78
2017-06-17T17:24:56.271Z,102732.97
2017-06-17T17:27:22.529Z,102737.72
2017-06-17T17:29:48.856Z,102732.94
2017-06-17T17:32:15.095Z,102739.58
2017-06-17T17:34:41.366Z,102737.31
2017-06-17T17:37:07.612Z,102732.88
2017-06-17T17:39:33.855Z,102734.48
2017-06-17T17:42:00.227Z,102734.11
2017-06-17T17:44:26.460Z,102725.49
2017-06-17T17:46:52.797Z,102729.45
2017-06-17T17:49:19.101Z,102726.99
2017-06-17T17:51:45.404Z,102732.59
2017-06-17T17:54:11.854Z,102728.59
2017-06-17T17:56:38.140Z,102732.00
2017-06-17T17:59:04.408Z,102732.76
2017-06-17T18:01:30.656Z,102727.98
2017-06-17T18:03:58.179Z,102734.22
2017-06-17T18:06:24.597Z,102734.87
2017-06-17T18:08:50.848Z,102735.66
2017-06-17T18:11:17.152Z,102735.78
2017-06-17T18:13:43.499Z,102735.50
2017-06-17T18:17:37.276Z,102740.14
2017-06-17T18:20:03.535Z,102740.67
2017-06-17T18:22:29.926Z,102741.36
2017-06-17T18:24:56.216Z,102748.14
2017-06-17T18:30:19.000Z,102746.38
2017-06-17T18:32:45.351Z,102745.45
2017-06-17T18:35:11.708Z,102752.72
2017-06-17T18:37:37.935Z,102755.54
2017-06-17T18:40:04.172Z,102755.47
2017-06-17T18:42:30.419Z,102753.42
2017-06-17T18:44:56.677Z,102754.05
2017-06-17T18:47:23.764Z,102751.02
2017-06-17T18:49:50.061Z,102749.73
2017-06-17T18:52:16.515Z,102752.78
2017-06-17T18:54:42.909Z,102753.36
2017-06-17T18:57:09.165Z,102754.09
2017-06-17T18:59:36.202Z,102753.06
2017-06-17T19:02:03.026Z,102749.84
2017-06-17T19:04:29.437Z,102755.45
2017-06-17T19:06:55.733Z,102753.36
2017-06-17T19:09:24.239Z,102750.22
2017-06-17T19:11:52.873Z,102754.19
2017-06-17T19:14:21.801Z,102751.98
2017-06-17T19:17:37.219Z,102750.84
2017-06-17T19:20:03.616Z,102750.76
2017-06-17T19:22:29.876Z,102749.07
2017-06-17T19:24:56.371Z,102740.45
2017-06-17T19:27:22.847Z,102746.50
2017-06-17T19:29:49.119Z,102750.86
2017-06-17T19:32:15.384Z,102760.73
2017-06-17T19:34:41.675Z,102761.16
2017-06-17T19:37:08.094Z,102771.17
2017-06-17T19:39:34.470Z,102764.59
2017-06-17T19:42:00.757Z,102776.24
2017-06-17T19:44:27.020Z,102774.80
2017-06-17T19:46:53.270Z,102773.95
2017-06-17T19:49:19.572Z,102771.91
2017-06-17T19:51:45.920Z,102772.75
2017-06-17T19:54:12.168Z,102768.73
2017-06-17T19:56:38.404Z,102768.01
2017-06-17T19:59:05.468Z,102764.28
2017-06-17T20:01:32.257Z,102767.27
2017-06-17T20:03:59.052Z,102773.75
2017-06-17T20:06:25.320Z,102773.52
2017-06-17T20:08:51.583Z,102783.08
2017-06-17T20:11:17.860Z,102786.34
2017-06-17T20:13:44.111Z,102789.06
2017-06-17T20:18:13.698Z,102785.73
2017-06-17T20:20:39.991Z,102780.40
2017-06-17T20:23:06.335Z,102785.70
2017-06-17T20:25:32.636Z,102793.61
2017-06-17T20:27:59.221Z,102794.39
2017-06-17T20:30:25.490Z,102785.89
2017-06-17T20:32:51.764Z,102786.26
2017-06-17T20:35:18.021Z,102790.39
2017-06-17T20:37:44.275Z,102786.05
2017-06-17T20:40:10.531Z,102789.47
2017-06-17T20:42:36.868Z,102789.80
2017-06-17T20:45:03.137Z,102791.72
2017-06-17T20:47:29.519Z,102794.78
2017-06-17T20:49:55.791Z,102793.49
2017-06-17T20:52:22.044Z,102788.55
2017-06-17T20:54:48.352Z,102794.47
2017-06-17T20:57:14.596Z,102801.30
2017-06-17T20:59:40.859Z,102794.23
2017-06-17T21:02:07.143Z,102805.34
2017-06-17T21:04:33.533Z,102800.80
2017-06-17T21:07:00.168Z,102798.66
2017-06-17T21:09:26.520Z,102804.25
2017-06-17T21:11:52.769Z,102804.67
2017-06-17T21:14:18.999Z,102804.39
2017-06-17T21:17:38.532Z,102808.45
2017-06-17T21:20:04.892Z,102817.52
2017-06-17T21:22:31.231Z,102821.35
2017-06-17T21:24:57.634Z,102819.98
2017-06-17T21:27:23.919Z,102822.44
2017-06-17T21:29:50.364Z,102821.31
2017-06-17T21:32:16.767Z,102820.80
2017-06-17T21:34:43.018Z,102815.56
2017-06-17T21:37:09.343Z,102817.48
2017-06-17T21:39:35.673Z,102815.23
2017-06-17T21:42:02.016Z,102825.48
2017-06-17T21:44:28.283Z,102819.19
2017-06-17T21:46:54.568Z,102820.69
2017-06-17T21:49:20.849Z,102818.41
2017-06-17T21:51:47.108Z,102824.99
2017-06-17T21:54:13.415Z,102827.97
2017-06-17T21:56:39.645Z,102825.59
2017-06-17T21:59:05.914Z,102827.58
2017-06-17T22:01:32.163Z,102825.36
2017-06-17T22:03:58.388Z,102823.72
2017-06-17T22:06:24.807Z,102827.77
2017-06-17T22:08:51.067Z,102822.52
2017-06-17T22:11:17.303Z,102824.84
2017-06-17T22:13:43.555Z,102832.13
2017-06-17T22:17:37.409Z,102825.02
2017-06-17T22:20:03.665Z,102827.19
2017-06-17T22:22:29.939Z,102824.02
2017-06-17T22:24:56.167Z,102825.03
2017-06-17T22:27:22.415Z,102822.86
2017-06-17T22:29:48.812Z,102820.05
2017-06-17T22:32:15.055Z,102819.55
2017-06-17T22:34:41.311Z,102820.70
2017-06-17T22:37:07.580Z,102825.22
2017-06-17T22:39:33.815Z,102819.61
2017-06-17T22:42:00.226Z,102824.83
2017-06-17T22:44:26.478Z,102816.64
2017-06-17T22:46:52.708Z,102816.77
2017-06-17T22:49:18.967Z,102818.86
2017-06-17T22:51:45.207Z,102813.69
2017-06-17T22:54:11.542Z,102809.89
2017-06-17T22:56:37.791Z,102812.80
2017-06-17T22:59:04.067Z,102811.66
2017-06-17T23:01:30.304Z,102817.40
2017-06-17T23:03:56.539Z,102822.04
2017-06-17T23:06:22.774Z,102817.40
2017-06-17T23:08:49.030Z,102816.86
2017-06-17T23:11:15.354Z,102821.81
2017-06-17T23:13:41.592Z,102825.08
2017-06-17T23:17:39.994Z,102829.09
2017-06-17T23:20:06.266Z,102819.30
2017-06-17T23:22:32.596Z,102809.89
2017-06-17T23:24:58.863Z,102824.11
2017-06-17T23:27:25.104Z,102814.83
2017-06-17T23:29:51.368Z,102815.25
2017-06-17T23:32:17.600Z,102814.50
2017-06-17T23:34:43.935Z,102813.16
2017-06-17T23:37:10.175Z,102813.70
2017-06-17T23:39:36.419Z,102809.68
2017-06-17T23:42:02.718Z,102801.88
2017-06-17T23:44:28.982Z,102812.83
2017-06-17T23:46:55.588Z,102806.11
2017-06-17T23:49:21.810Z,102806.60
2017-06-17T23:51:48.101Z,102807.36
2017-06-17T23:54:14.359Z,102806.80
2017-06-17T23:56:40.588Z,102809.45
2017-06-17T23:59:06.864Z,102809.97
